Wednesday, October 22, 2014
06:29 UTC
  |  Log In   |  Register Free
Airport Search:

Norwood Memorial Airport
(KOWD)

FAA data valid effective September 18, 2014 - November 13, 2014 (unless otherwise noted).

 
 
 
 
 
 
 
 
 
 
 
 
 
 

Current Aviation Weather for Norwood Memorial Airport (KOWD)

The most recent METAR observation for KOWD was updated at: 0614
METAR Summary (Translated METAR)
KOWD
220602Z AUTO VRB05KT 7SM OVC004 11/10 A2997 RMK AO2 T01110100
KBOS
220554Z 35010KT 10SM OVC005 11/10 A2998 RMK AO2 SLP152 T01110100 10144 20111 58004
(12.7 nm NE from KOWD)
KBED
220556Z AUTO 36010KT 5SM BR OVC004 09/09 A2998 RMK AO2 SLP165 T00940094 10133 20094 58002 TSNO
(17.5 nm NW from KOWD)
TAF Summary (Translated TAF)
KBOS
(12.7 nm NE from KOWD)
220542Z 2206/2312 35009KT 6SM BR OVC004 FM221100 02013KT 3SM BR OVC004 FM221900 03017KT 2SM -SHRA BR OVC015 FM230000 03018G27KT 2SM +SHRA BR OVC008 FM230300 03017KT 1SM +SHRA BR OVC003
KBED
(17.5 nm NW from KOWD)
220542Z 2206/2306 01010KT 6SM BR OVC004 FM221500 02013KT 2SM BR OVC008 FM221900 02014KT 2SM -SHRA BR OVC008 FM230300 03015KT 1SM +SHRA BR OVC003 WS020/04040KT
  Airport Weather Conditions for KOWD

 Current Weather at OWD
53° F
Overcast
Variable winds at 4.6 mph
OWD NOAA Radar

Pressure: 29.98 in
Humidity: 93%
Wind: Variable at 4.6 MPH (4 KT)
Dew Point: 51.1°F
Visibility: 10.00 mi


Airport Weather Forecast for KOWD

Translated METAR and TAF for KOWD
Translated METAR for KOWD (0624 UTC 22 October 2014)
found at http://aviationweather.gov/adds/metars/
 
METAR text: KOWD 220602Z AUTO VRB05KT 7SM OVC004 11/10 A2997 RMK AO2 T01110100
Conditions at: KOWD (NORWOOD , MA, US) observed 0602 UTC 22 October 2014
Temperature: 11.1°C (52°F)
Dewpoint: 10.0°C (50°F) [RH = 93%]
Pressure (altimeter): 29.97 inches Hg (1015.0 mb)
Winds: variable direction winds at 6 MPH (5 knots; 2.6 m/s)
Visibility: 7 miles (11 km)
Ceiling: 400 feet AGL
Clouds: overcast cloud deck at 400 feet AGL
Weather: automated observation with no human augmentation;
there may or may not be significant weather present at this time
Translated TAF for KOWD

There is no translated TAF available for this airport

Find All Airport Services Find A Hotel Find A Rental Car Find A Golf Course Find A Restaurant $100 Hamburger



FBO's on the Field
FBO Company Facility Photos Services Transportation Aviation Fuel Prices: Prices include tax
Catering Weather Repair Courtesy Rental Type 100LL JetA JetA+ MOGAS 8087
 
FlightLevel Aviation

Currently rated 2.7 by 2 people
FS:Shell
Last Updated: Oct-21
Login to update fuel prices
SS:
Contact FlightLevel AviationMore FBO Information
 
Add another FBO Facility Photos Catering Weather Repair Courtesy Rental Type 100LL JetA JetA+ MOGAS 8087
Services Transportation Aviation Fuel Prices: Prices include tax


model-print
model-print
model-print
model-print